To NAV CANADA Home Page Login to a new session Search on AWWS site Disclaimer Vers la page française équivalente Tips FAQ What's new on the site To the Forecasts and Observations / NOTAM section To "File a Flight Plan" website Publications and other links Update of the User's profile FIC Telephone Numbers My Weather Data Folder Route Weather Data Regional Weather Data Local Weather Data To the Forecasts and Observations / NOTAM section
Request Generated 10/19/2018 at 15:28:20 UTC . Weather information available at that time is displayed.

METAR/TAF

TASIUJAQ/QC    

METAR CYTQ 191500Z 23003KT 190V290 12SM FEW010 BKN040 M08/M12 A2984 RMK SC2SC5 SLP109=
METAR CYTQ 191400Z 21009KT 12SM SCT010 BKN044 M09/M12 A2984 RMK SC3SC4 SLP111=
METAR CYTQ 191300Z 21005KT 12SM FEW010 BKN034 M09/M12 A2986 RMK SC2SC5 SLP115=

TAF CYTQ 191338Z 1914/1921 21005KT P6SM FEW020 BKN030 TEMPO 1914/1917
BKN020
FM191800 29012KT P6SM SCT030
RMK NXT FCST WILL BE ISSUED AT 201345Z=
Your time UTC time
Weather data provided by Environment Canada and NAV CANADA